createdAt,value
2018-10-06T00:02:22.491Z,98714.49
2018-10-06T00:05:27.453Z,98714.73
2018-10-06T00:08:32.431Z,98714.48
2018-10-06T00:11:38.226Z,98709.62
2018-10-06T00:14:43.213Z,98708.36
2018-10-06T00:17:49.831Z,98704.28
2018-10-06T00:20:56.337Z,98713.73
2018-10-06T00:24:01.511Z,98711.19
2018-10-06T00:27:06.765Z,98704.30
2018-10-06T00:30:12.772Z,98699.18
2018-10-06T00:33:18.568Z,98699.44
2018-10-06T00:36:24.387Z,98694.70
2018-10-06T00:39:30.574Z,98695.59
2018-10-06T00:42:35.568Z,98689.97
2018-10-06T00:45:40.794Z,98686.77
2018-10-06T00:48:46.437Z,98684.22
2018-10-06T00:51:51.515Z,98681.02
2018-10-06T00:54:58.019Z,98675.80
2018-10-06T00:58:03.877Z,98681.03
2018-10-06T01:01:09.076Z,98686.14
2018-10-06T01:04:14.669Z,98676.19
2018-10-06T01:07:20.530Z,98674.10
2018-10-06T01:10:26.941Z,98671.30
2018-10-06T01:13:31.980Z,98668.75
2018-10-06T01:16:36.998Z,98660.80
2018-10-06T01:19:42.241Z,98657.35
2018-10-06T01:22:48.604Z,98656.47
2018-10-06T01:25:53.565Z,98648.54
2018-10-06T01:29:01.278Z,98647.26
2018-10-06T01:32:19.833Z,98649.03
2018-10-06T01:35:33.171Z,98645.45
2018-10-06T01:38:44.728Z,98643.94
2018-10-06T01:41:49.774Z,98643.69
2018-10-06T01:44:56.489Z,98644.44
2018-10-06T01:48:02.342Z,98645.72
2018-10-06T01:51:08.300Z,98637.06
2018-10-06T01:54:14.632Z,98643.55
2018-10-06T01:57:21.166Z,98641.00
2018-10-06T02:00:26.917Z,98634.48
2018-10-06T02:03:33.061Z,98633.36
2018-10-06T02:06:38.804Z,98630.80
2018-10-06T02:09:44.602Z,98632.83
2018-10-06T02:12:50.357Z,98629.64
2018-10-06T02:15:55.322Z,98628.86
2018-10-06T02:19:00.371Z,98626.85
2018-10-06T02:22:05.519Z,98624.94
2018-10-06T02:25:14.988Z,98623.66
2018-10-06T02:28:21.786Z,98625.55
2018-10-06T02:31:28.886Z,98622.00
2018-10-06T02:34:34.685Z,98620.83
2018-10-06T02:37:40.903Z,98617.78
2018-10-06T02:40:45.897Z,98618.66
2018-10-06T02:43:51.761Z,98609.72
2018-10-06T02:47:00.379Z,98613.55
2018-10-06T02:50:07.647Z,98605.50
2018-10-06T02:53:12.984Z,98606.15
2018-10-06T02:56:19.982Z,98603.70
2018-10-06T02:59:25.951Z,98606.01
2018-10-06T03:02:34.882Z,98592.10
2018-10-06T03:05:40.727Z,98593.88
2018-10-06T03:08:47.217Z,98593.39
2018-10-06T03:11:52.211Z,98584.16
2018-10-06T03:14:59.943Z,98582.38
2018-10-06T03:18:06.581Z,98583.68
2018-10-06T03:21:13.641Z,98575.48
2018-10-06T03:24:19.898Z,98575.48
2018-10-06T03:27:25.520Z,98567.81
2018-10-06T03:30:31.779Z,98570.62
2018-10-06T03:33:38.429Z,98570.36
2018-10-06T03:36:45.460Z,98568.35
2018-10-06T03:39:53.984Z,98564.52
2018-10-06T03:42:59.311Z,98556.20
2018-10-06T03:46:07.078Z,98558.86
2018-10-06T03:49:15.466Z,98553.91
2018-10-06T03:52:29.163Z,98558.38
2018-10-06T03:55:36.419Z,98557.59
2018-10-06T03:58:44.957Z,98555.05
2018-10-06T04:01:51.955Z,98547.88
2018-10-06T04:05:00.424Z,98548.41
2018-10-06T04:08:09.230Z,98542.14
2018-10-06T04:11:16.421Z,98535.26
2018-10-06T04:14:23.335Z,98534.87
2018-10-06T04:17:32.104Z,98528.73
2018-10-06T04:20:37.101Z,98530.27
2018-10-06T04:23:45.306Z,98532.81
2018-10-06T04:26:53.339Z,98529.52
2018-10-06T04:29:58.329Z,98533.85
2018-10-06T04:33:06.122Z,98529.77
2018-10-06T04:36:11.230Z,98527.21
2018-10-06T04:39:17.161Z,98531.05
2018-10-06T04:42:22.902Z,98527.21
2018-10-06T04:45:27.902Z,98524.91
2018-10-06T04:48:33.538Z,98522.22
2018-10-06T04:51:38.603Z,98523.89
2018-10-06T04:54:44.547Z,98528.50
2018-10-06T04:57:49.526Z,98520.56
2018-10-06T05:00:55.334Z,98529.66
2018-10-06T05:04:02.183Z,98522.87
2018-10-06T05:07:07.921Z,98520.82
2018-10-06T05:10:14.160Z,98522.63
2018-10-06T05:15:04.440Z,98516.38
2018-10-06T05:18:10.217Z,98515.73
2018-10-06T05:21:16.178Z,98514.20
2018-10-06T05:24:21.833Z,98520.05
2018-10-06T05:27:27.501Z,98517.63
2018-10-06T05:30:33.355Z,98520.97
2018-10-06T05:33:39.198Z,98516.22
2018-10-06T05:36:54.164Z,98520.82
2018-10-06T05:39:59.139Z,98522.37
2018-10-06T05:43:05.104Z,98524.92
2018-10-06T05:46:10.909Z,98525.16
2018-10-06T05:49:16.086Z,98517.00
2018-10-06T05:52:21.099Z,98519.66
2018-10-06T05:55:26.233Z,98525.66
2018-10-06T05:58:32.513Z,98527.45
2018-10-06T06:01:38.490Z,98530.01
2018-10-06T06:04:43.646Z,98531.17
2018-10-06T06:07:48.626Z,98535.11
2018-10-06T06:10:53.666Z,98532.30
2018-10-06T06:14:05.695Z,98524.13
2018-10-06T06:17:15.445Z,98521.31
2018-10-06T06:20:23.237Z,98515.95
2018-10-06T06:23:31.049Z,98523.11
2018-10-06T06:26:41.483Z,98523.36
2018-10-06T06:29:53.824Z,98520.16
2018-10-06T06:33:07.715Z,98522.06
2018-10-06T06:36:16.787Z,98511.81
2018-10-06T06:39:23.206Z,98514.09
2018-10-06T06:42:31.213Z,98512.83
2018-10-06T06:45:41.135Z,98513.30
2018-10-06T06:48:53.439Z,98519.17
2018-10-06T06:52:02.362Z,98514.83
2018-10-06T06:55:10.781Z,98510.09
2018-10-06T06:58:20.218Z,98505.32
2018-10-06T07:01:32.057Z,98497.10
2018-10-06T07:04:40.081Z,98492.77
2018-10-06T07:07:53.213Z,98486.70
2018-10-06T07:11:00.118Z,98488.73
2018-10-06T07:14:06.340Z,98483.86
2018-10-06T07:17:12.579Z,98485.25
2018-10-06T07:20:21.808Z,98480.55
2018-10-06T07:23:30.580Z,98475.27
2018-10-06T07:26:36.447Z,98471.14
2018-10-06T07:29:41.465Z,98468.25
2018-10-06T07:32:46.509Z,98464.59
2018-10-06T07:35:52.405Z,98475.84
2018-10-06T07:38:58.263Z,98471.05
2018-10-06T07:42:04.126Z,98473.53
2018-10-06T07:45:10.252Z,98477.44
2018-10-06T07:48:16.014Z,98473.23
2018-10-06T07:51:21.886Z,98477.11
2018-10-06T07:54:26.925Z,98470.03
2018-10-06T07:57:32.767Z,98468.77
2018-10-06T08:00:38.381Z,98472.20
2018-10-06T08:03:45.692Z,98466.46
2018-10-06T08:06:52.721Z,98459.45
2018-10-06T08:09:59.924Z,98468.49
2018-10-06T08:13:07.115Z,98458.61
2018-10-06T08:16:14.852Z,98456.75
2018-10-06T08:19:23.314Z,98463.95
2018-10-06T08:22:29.791Z,98457.85
2018-10-06T08:25:35.718Z,98453.61
2018-10-06T08:28:41.643Z,98451.91
2018-10-06T08:31:48.294Z,98448.59
2018-10-06T08:34:57.281Z,98437.39
2018-10-06T08:38:07.885Z,98441.83
2018-10-06T08:41:22.904Z,98436.53
2018-10-06T08:44:35.155Z,98423.62
2018-10-06T08:47:42.269Z,98423.17
2018-10-06T08:54:28.943Z,98420.05
2018-10-06T08:57:33.907Z,98408.59
2018-10-06T09:00:45.789Z,98396.62
2018-10-06T09:03:52.713Z,98392.94
2018-10-06T09:06:59.698Z,98382.59
2018-10-06T09:10:11.202Z,98393.64
2018-10-06T09:13:22.053Z,98393.05
2018-10-06T09:16:31.180Z,98378.55
2018-10-06T09:19:40.096Z,98387.25
2018-10-06T09:22:47.536Z,98386.23
2018-10-06T09:25:55.049Z,98376.42
2018-10-06T09:29:03.364Z,98368.19
2018-10-06T09:32:13.200Z,98372.03
2018-10-06T09:35:23.190Z,98361.02
2018-10-06T09:38:33.323Z,98358.69
2018-10-06T09:41:43.032Z,98349.44
2018-10-06T09:44:52.644Z,98342.83
2018-10-06T09:51:23.271Z,98346.28
2018-10-06T09:54:31.126Z,98343.17
2018-10-06T09:57:42.498Z,98337.83
2018-10-06T10:00:58.172Z,98340.69
2018-10-06T10:04:10.246Z,98337.75
2018-10-06T10:07:15.249Z,98334.74
2018-10-06T10:10:21.996Z,98341.25
2018-10-06T10:13:26.979Z,98340.42
2018-10-06T10:16:32.212Z,98331.66
2018-10-06T10:19:37.222Z,98327.44
2018-10-06T10:22:42.342Z,98326.00
2018-10-06T10:25:47.304Z,98327.14
2018-10-06T10:28:53.558Z,98320.44
2018-10-06T10:32:02.871Z,98317.34
2018-10-06T10:35:13.358Z,98318.66
2018-10-06T10:38:22.885Z,98317.66
2018-10-06T10:41:32.964Z,98316.87
2018-10-06T10:44:46.516Z,98317.91
2018-10-06T10:47:56.601Z,98313.83
2018-10-06T10:51:05.209Z,98304.96
2018-10-06T10:54:13.342Z,98306.81
2018-10-06T10:57:23.519Z,98313.09
2018-10-06T11:00:31.451Z,98306.12
2018-10-06T11:03:43.434Z,98305.30
2018-10-06T11:06:54.505Z,98299.69
2018-10-06T11:10:06.864Z,98299.64
2018-10-06T11:13:19.022Z,98302.70
2018-10-06T11:16:30.043Z,98292.62
2018-10-06T11:19:35.058Z,98293.54
2018-10-06T11:22:41.370Z,98292.97
2018-10-06T11:25:46.799Z,98286.55
2018-10-06T11:28:51.851Z,98282.94
2018-10-06T11:31:58.246Z,98277.45
2018-10-06T11:35:03.250Z,98271.31
2018-10-06T11:38:09.075Z,98270.72
2018-10-06T11:41:15.114Z,98271.34
2018-10-06T11:44:20.844Z,98266.11
2018-10-06T11:47:26.617Z,98269.16
2018-10-06T11:50:36.496Z,98264.88
2018-10-06T11:53:45.340Z,98253.30
2018-10-06T11:56:55.017Z,98247.16
2018-10-06T12:00:04.401Z,98250.28
2018-10-06T12:03:12.854Z,98242.73
2018-10-06T12:06:23.375Z,98233.41
2018-10-06T12:09:32.602Z,98227.40
2018-10-06T12:15:10.891Z,98214.05
2018-10-06T12:18:22.223Z,98214.52
2018-10-06T12:21:33.762Z,98212.88
2018-10-06T12:24:42.927Z,98216.76
2018-10-06T12:27:47.925Z,98205.19
2018-10-06T12:30:53.186Z,98208.06
2018-10-06T12:34:00.067Z,98205.19
2018-10-06T12:37:05.380Z,98203.60
2018-10-06T12:40:11.372Z,98197.17
2018-10-06T12:43:16.454Z,98203.98
2018-10-06T12:46:21.721Z,98202.13
2018-10-06T12:49:28.054Z,98196.99
2018-10-06T12:52:34.165Z,98190.34
2018-10-06T12:55:40.884Z,98183.23
2018-10-06T12:58:47.998Z,98180.36
2018-10-06T13:01:54.145Z,98176.34
2018-10-06T13:05:00.021Z,98176.27
2018-10-06T13:08:06.498Z,98176.14
2018-10-06T13:11:12.762Z,98177.36
2018-10-06T13:14:18.714Z,98176.33
2018-10-06T13:17:24.629Z,98171.82
2018-10-06T13:20:29.699Z,98164.99
2018-10-06T13:23:34.891Z,98160.21
2018-10-06T13:26:41.560Z,98160.16
2018-10-06T13:29:47.565Z,98155.38
2018-10-06T13:32:53.748Z,98159.00
2018-10-06T13:36:00.189Z,98155.08
2018-10-06T13:39:06.941Z,98156.98
2018-10-06T13:42:13.274Z,98158.70
2018-10-06T13:45:19.929Z,98158.31
2018-10-06T13:48:25.883Z,98157.70
2018-10-06T13:51:31.739Z,98153.11
2018-10-06T13:54:37.601Z,98155.44
2018-10-06T13:57:43.677Z,98146.58
2018-10-06T14:00:48.810Z,98151.28
2018-10-06T14:03:54.799Z,98149.88
2018-10-06T14:07:01.454Z,98148.60
2018-10-06T14:10:06.478Z,98138.81
2018-10-06T14:13:13.455Z,98142.34
2018-10-06T14:16:20.591Z,98133.20
2018-10-06T14:19:26.613Z,98125.84
2018-10-06T14:22:32.870Z,98122.88
2018-10-06T14:25:39.142Z,98122.72
2018-10-06T14:28:44.927Z,98117.11
2018-10-06T14:31:50.846Z,98113.05
2018-10-06T14:34:56.709Z,98111.43
2018-10-06T14:38:01.743Z,98105.81
2018-10-06T14:41:06.800Z,98105.31
2018-10-06T14:44:12.573Z,98104.47
2018-10-06T14:47:19.402Z,98100.48
2018-10-06T14:50:24.822Z,98092.16
2018-10-06T14:53:30.764Z,98101.33
2018-10-06T14:56:37.300Z,98095.95
2018-10-06T14:59:43.274Z,98090.72
2018-10-06T15:02:49.137Z,98086.30
2018-10-06T15:05:55.772Z,98083.73
2018-10-06T15:09:02.639Z,98083.30
2018-10-06T15:12:09.547Z,98078.93
2018-10-06T15:15:15.487Z,98073.13
2018-10-06T15:18:21.486Z,98074.88
2018-10-06T15:21:28.227Z,98067.02
2018-10-06T15:24:33.598Z,98066.45
2018-10-06T15:27:40.945Z,98063.98
2018-10-06T15:30:47.346Z,98066.86
2018-10-06T15:33:53.923Z,98068.10
2018-10-06T15:37:00.772Z,98068.39
2018-10-06T15:40:08.597Z,98074.32
2018-10-06T15:43:15.572Z,98067.74
2018-10-06T15:46:23.066Z,98068.58
2018-10-06T15:49:29.868Z,98064.17
2018-10-06T15:52:36.066Z,98061.26
2018-10-06T15:55:41.955Z,98062.91
2018-10-06T15:58:49.583Z,98062.73
2018-10-06T16:01:56.578Z,98062.96
2018-10-06T16:05:02.462Z,98061.17
2018-10-06T16:08:08.777Z,98065.92
2018-10-06T16:11:14.602Z,98064.88
2018-10-06T16:14:20.887Z,98062.92
2018-10-06T16:17:28.296Z,98063.52
2018-10-06T16:20:34.246Z,98060.25
2018-10-06T16:23:40.276Z,98063.31
2018-10-06T16:26:47.483Z,98063.31
2018-10-06T16:29:53.930Z,98060.35
2018-10-06T16:32:59.915Z,98062.48
2018-10-06T16:36:05.851Z,98054.84
2018-10-06T16:39:13.361Z,98052.10
2018-10-06T16:42:20.334Z,98056.97
2018-10-06T16:45:27.318Z,98058.52
2018-10-06T16:48:36.136Z,98062.45
2018-10-06T16:51:44.109Z,98065.73
2018-10-06T16:54:51.090Z,98066.34
2018-10-06T16:57:57.365Z,98065.93
2018-10-06T17:01:03.304Z,98068.94
2018-10-06T17:04:09.579Z,98072.37
2018-10-06T17:07:15.451Z,98074.05
2018-10-06T17:10:21.591Z,98073.13
2018-10-06T17:13:27.757Z,98080.39
2018-10-06T17:16:33.893Z,98083.88
2018-10-06T17:19:40.764Z,98082.55
2018-10-06T17:22:46.609Z,98078.20
2018-10-06T17:25:53.471Z,98083.36
2018-10-06T17:29:00.820Z,98080.33
2018-10-06T17:32:07.471Z,98081.63
2018-10-06T17:35:14.228Z,98082.68
2018-10-06T17:38:20.511Z,98078.81
2018-10-06T17:41:27.440Z,98080.91
2018-10-06T17:44:34.557Z,98085.34
2018-10-06T17:47:42.592Z,98087.24
2018-10-06T17:50:49.118Z,98091.73
2018-10-06T17:53:56.431Z,98082.20
2018-10-06T17:57:01.656Z,98088.97
2018-10-06T18:00:07.858Z,98082.66
2018-10-06T18:03:13.015Z,98089.56
2018-10-06T18:06:18.930Z,98091.62
2018-10-06T18:09:24.021Z,98096.63
2018-10-06T18:12:31.081Z,98092.31
2018-10-06T18:15:37.106Z,98103.37
2018-10-06T18:18:42.187Z,98100.64
2018-10-06T18:21:48.023Z,98100.06
2018-10-06T18:24:53.928Z,98102.17
2018-10-06T18:28:03.013Z,98098.62
2018-10-06T18:31:10.980Z,98098.67
2018-10-06T18:34:31.786Z,98101.38
2018-10-06T18:37:46.342Z,98105.77
2018-10-06T18:40:55.071Z,98100.20
2018-10-06T18:44:17.684Z,98102.19
2018-10-06T18:50:58.716Z,98107.15
2018-10-06T18:54:05.589Z,98111.37
2018-10-06T18:57:11.653Z,98118.06
2018-10-06T19:00:17.704Z,98120.53
2018-10-06T19:03:24.898Z,98118.13
2018-10-06T19:06:31.983Z,98121.46
2018-10-06T19:09:37.935Z,98128.48
2018-10-06T19:12:44.882Z,98123.91
2018-10-06T19:15:51.643Z,98128.25
2018-10-06T19:18:56.906Z,98134.05
2018-10-06T19:22:05.019Z,98131.64
2018-10-06T19:25:23.714Z,98144.31
2018-10-06T19:28:28.896Z,98142.60
2018-10-06T19:31:36.458Z,98149.60
2018-10-06T19:34:41.548Z,98153.19
2018-10-06T19:37:50.102Z,98150.25
2018-10-06T19:40:58.670Z,98152.62
2018-10-06T19:44:04.719Z,98150.89
2018-10-06T19:47:10.831Z,98155.95
2018-10-06T19:50:16.832Z,98153.55
2018-10-06T19:53:22.974Z,98148.63
2018-10-06T19:56:28.727Z,98153.27
2018-10-06T19:59:34.438Z,98159.34
2018-10-06T20:02:39.492Z,98156.13
2018-10-06T20:05:44.476Z,98159.03
2018-10-06T20:08:50.981Z,98158.67
2018-10-06T20:11:55.985Z,98161.95
2018-10-06T20:15:00.953Z,98164.86
2018-10-06T20:18:06.950Z,98162.52
2018-10-06T20:21:11.965Z,98164.87
2018-10-06T20:24:18.049Z,98164.64
2018-10-06T20:27:24.781Z,98169.42
2018-10-06T20:30:29.953Z,98170.34
2018-10-06T20:33:35.721Z,98174.86
2018-10-06T20:36:40.743Z,98176.23
2018-10-06T20:39:46.650Z,98168.72
2018-10-06T20:42:54.003Z,98172.20
2018-10-06T20:46:00.192Z,98170.27
2018-10-06T20:49:06.349Z,98167.62
2018-10-06T20:52:11.410Z,98170.44
2018-10-06T20:55:17.176Z,98173.28
2018-10-06T20:58:23.344Z,98177.95
2018-10-06T21:01:29.876Z,98170.61
2018-10-06T21:04:35.514Z,98166.91
2018-10-06T21:07:40.761Z,98172.80
2018-10-06T21:15:06.433Z,98167.13
2018-10-06T21:18:14.342Z,98162.91
2018-10-06T21:21:19.690Z,98165.80
2018-10-06T21:24:24.808Z,98162.06
2018-10-06T21:27:31.642Z,98160.77
2018-10-06T21:30:36.892Z,98154.80
2018-10-06T21:33:42.051Z,98156.24
2018-10-06T21:36:47.129Z,98153.98
2018-10-06T21:39:53.290Z,98158.78
2018-10-06T21:42:58.508Z,98157.95
2018-10-06T21:46:03.702Z,98160.19
2018-10-06T21:49:08.842Z,98155.73
2018-10-06T21:52:13.866Z,98159.50
2018-10-06T21:55:20.621Z,98155.12
2018-10-06T21:58:26.292Z,98156.19
2018-10-06T22:01:35.601Z,98159.89
2018-10-06T22:04:41.632Z,98165.04
2018-10-06T22:07:46.802Z,98156.03
2018-10-06T22:10:52.977Z,98155.52
2018-10-06T22:13:59.119Z,98154.11
2018-10-06T22:17:04.187Z,98156.58
2018-10-06T22:20:09.494Z,98160.38
2018-10-06T22:23:15.106Z,98161.88
2018-10-06T22:26:21.686Z,98167.27
2018-10-06T22:29:28.031Z,98163.61
2018-10-06T22:32:33.061Z,98167.70
2018-10-06T22:35:38.086Z,98166.52
2018-10-06T22:38:43.843Z,98163.00
2018-10-06T22:41:50.258Z,98156.02
2018-10-06T22:44:55.967Z,98158.49
2018-10-06T22:48:01.152Z,98158.63
2018-10-06T22:51:06.414Z,98159.34
2018-10-06T22:54:11.539Z,98159.06
2018-10-06T22:57:16.606Z,98158.38
2018-10-06T23:00:23.290Z,98163.73
2018-10-06T23:03:28.487Z,98168.49
2018-10-06T23:06:33.516Z,98164.42
2018-10-06T23:09:39.645Z,98162.08
2018-10-06T23:12:44.644Z,98165.66
2018-10-06T23:15:50.797Z,98170.23
2018-10-06T23:18:56.562Z,98169.64
2018-10-06T23:22:01.594Z,98171.30
2018-10-06T23:25:06.606Z,98174.98
2018-10-06T23:28:12.519Z,98178.26
2018-10-06T23:31:17.529Z,98173.81
2018-10-06T23:34:29.343Z,98180.07
2018-10-06T23:37:34.364Z,98183.36
2018-10-06T23:40:40.346Z,98180.98
2018-10-06T23:43:45.356Z,98189.39
2018-10-06T23:46:50.445Z,98189.69
2018-10-06T23:49:55.613Z,98196.41
2018-10-06T23:53:00.606Z,98197.11
2018-10-06T23:56:06.560Z,98200.48
2018-10-06T23:59:13.425Z,98193.77
